Time;durP1;ratioP1;P1;durP2;ratioP2;P2;SDS_P1;SDS_P2;PMS_P1;PMS_P2;Temp;Humidity;BMP_temperature;BMP_pressure;BME280_temperature;BME280_humidity;BME280_pressure;Samples;Min_cycle;Max_cycle;Signal;HPM_P1;HPM_P2
2022/09/21 00:01:08;;;;;;;;;;;;;;;8.68;100.00;99309.77;105072;1271;62079;-74
2022/09/21 00:03:35;;;;;;;;;;;;;;;8.70;100.00;99309.52;105215;1271;73246;-74
2022/09/21 00:06:05;;;;;;;;;;;;;;;8.70;100.00;99303.14;105242;1271;62181;-74
2022/09/21 00:08:31;;;;;;;;;;;;;;;8.68;100.00;99305.69;104911;1271;62072;-74
2022/09/21 00:10:58;;;;;;;;;;;;;;;8.67;100.00;99299.95;105181;1271;62270;-74
2022/09/21 00:13:25;;;;;;;;;;;;;;;8.65;100.00;99302.88;105128;1271;70802;-74
2022/09/21 00:15:51;;;;;;;;;;;;;;;8.62;100.00;99305.20;105126;1270;72555;-74
2022/09/21 00:18:17;;;;;;;;;;;;;;;8.57;100.00;99303.86;105163;1271;62161;-74
2022/09/21 00:20:43;;;;;;;;;;;;;;;8.52;100.00;99307.11;105245;1271;62188;-73
2022/09/21 00:23:09;;;;;;;;;;;;;;;8.48;100.00;99304.13;105272;1271;62098;-73
2022/09/21 00:25:35;;;;;;;;;;;;;;;8.46;100.00;99306.40;105248;1271;62184;-73
2022/09/21 00:28:01;;;;;;;;;;;;;;;8.42;100.00;99311.87;105204;1270;62057;-75
2022/09/21 00:30:27;;;;;;;;;;;;;;;8.40;100.00;99311.84;105130;1271;62251;-72
2022/09/21 00:32:53;;;;;;;;;;;;;;;8.35;100.00;99312.91;105168;1271;62043;-75
2022/09/21 00:35:19;;;;;;;;;;;;;;;8.34;100.00;99311.23;105253;1271;62097;-78
2022/09/21 00:37:45;;;;;;;;;;;;;;;8.32;100.00;99312.23;105242;1270;74333;-75
2022/09/21 00:40:11;;;;;;;;;;;;;;;8.30;100.00;99313.55;105143;1271;62181;-76
2022/09/21 00:42:37;;;;;;;;;;;;;;;8.28;100.00;99317.54;105212;1271;62159;-75
2022/09/21 00:45:03;;;;;;;;;;;;;;;8.26;100.00;99315.52;105199;1271;62155;-74
2022/09/21 00:47:33;;;;;;;;;;;;;;;8.24;100.00;99318.64;105311;1271;62147;-74
2022/09/21 00:50:01;;;;;;;;;;;;;;;8.23;100.00;99322.25;105218;1270;73396;-75
2022/09/21 00:52:30;;;;;;;;;;;;;;;8.22;100.00;99319.13;105193;1271;62159;-75
2022/09/21 00:54:59;;;;;;;;;;;;;;;8.22;100.00;99319.14;105215;1271;62030;-74
2022/09/21 00:57:27;;;;;;;;;;;;;;;8.22;100.00;99321.07;105159;1270;77294;-74
2022/09/21 00:59:55;;;;;;;;;;;;;;;8.23;100.00;99322.77;105167;1271;69453;-74
2022/09/21 01:02:21;;;;;;;;;;;;;;;8.24;100.00;99325.91;105183;1270;74847;-75
2022/09/21 01:04:48;;;;;;;;;;;;;;;8.25;100.00;99325.52;105209;1271;62095;-74
2022/09/21 01:07:17;;;;;;;;;;;;;;;8.26;100.00;99330.08;104942;1271;62352;-73
2022/09/21 01:09:45;;;;;;;;;;;;;;;8.27;100.00;99331.41;105167;1271;77542;-73
2022/09/21 01:12:22;;;;;;;;;;;;;;;8.28;100.00;99326.57;105188;1270;70120;-73
2022/09/21 01:14:48;;;;;;;;;;;;;;;8.29;100.00;99328.46;105138;1271;73554;-74
2022/09/21 01:17:23;;;;;;;;;;;;;;;8.30;100.00;99328.79;105180;1271;62132;-72
2022/09/21 01:20:07;;;;;;;;;;;;;;;8.30;100.00;99334.08;105153;1271;62142;-73
2022/09/21 01:22:52;;;;;;;;;;;;;;;8.31;100.00;99335.42;105158;1270;77370;-72
2022/09/21 01:25:37;;;;;;;;;;;;;;;8.34;100.00;99334.07;105177;1270;70177;-75
2022/09/21 01:28:12;;;;;;;;;;;;;;;8.35;100.00;99329.92;105173;1270;74803;-75
2022/09/21 01:30:38;;;;;;;;;;;;;;;8.37;100.00;99329.84;104970;1271;62176;-75
2022/09/21 01:33:11;;;;;;;;;;;;;;;8.38;100.00;99333.70;105188;1270;62006;-74
2022/09/21 01:35:40;;;;;;;;;;;;;;;8.38;100.00;99334.60;105184;1271;76544;-73
2022/09/21 01:38:08;;;;;;;;;;;;;;;8.38;100.00;99340.43;105270;1270;69382;-76
2022/09/21 01:40:37;;;;;;;;;;;;;;;8.38;100.00;99337.95;104985;1271;74638;-73
2022/09/21 01:43:05;;;;;;;;;;;;;;;8.38;100.00;99339.01;105175;1270;62202;-74
2022/09/21 01:45:33;;;;;;;;;;;;;;;8.40;100.00;99340.17;105201;1270;62162;-73
2022/09/21 01:48:03;;;;;;;;;;;;;;;8.42;100.00;99344.16;105131;1270;77555;-74
2022/09/21 01:50:36;;;;;;;;;;;;;;;8.42;100.00;99345.37;105187;1270;69416;-74
2022/09/21 01:53:06;;;;;;;;;;;;;;;8.45;100.00;99345.58;105157;1270;73351;-75
2022/09/21 01:55:38;;;;;;;;;;;;;;;8.46;100.00;99341.98;105172;1271;62154;-72
2022/09/21 01:58:10;;;;;;;;;;;;;;;8.47;100.00;99344.05;105153;1270;62226;-75
2022/09/21 02:00:38;;;;;;;;;;;;;;;8.47;100.00;99343.70;105189;1271;77304;-74
2022/09/21 02:03:11;;;;;;;;;;;;;;;8.48;100.00;99344.36;105247;1270;70600;-76
2022/09/21 02:05:37;;;;;;;;;;;;;;;8.48;100.00;99345.74;105163;1270;74539;-73
2022/09/21 02:08:04;;;;;;;;;;;;;;;8.49;100.00;99345.34;104911;1271;62198;-74
2022/09/21 02:10:31;;;;;;;;;;;;;;;8.50;100.00;99347.74;105171;1270;62153;-73
2022/09/21 02:13:00;;;;;;;;;;;;;;;8.51;100.00;99348.05;105153;1270;75982;-74
2022/09/21 02:15:36;;;;;;;;;;;;;;;8.53;100.00;99349.23;105124;1270;69594;-75
2022/09/21 02:18:12;;;;;;;;;;;;;;;8.53;100.00;99345.48;105140;1270;74850;-76
2022/09/21 02:20:43;;;;;;;;;;;;;;;8.54;100.00;99348.96;105132;1270;62040;-75
2022/09/21 02:23:32;;;;;;;;;;;;;;;8.55;100.00;99350.17;105180;1270;62066;-75
2022/09/21 02:26:08;;;;;;;;;;;;;;;8.55;100.00;99347.33;104652;1278;76316;-76
2022/09/21 02:28:49;;;;;;;;;;;;;;;8.54;100.00;99346.13;104518;1279;69475;-74
2022/09/21 02:31:19;;;;;;;;;;;;;;;8.54;100.00;99346.35;104398;1278;74695;-73
2022/09/21 02:34:01;;;;;;;;;;;;;;;8.52;100.00;99351.00;104632;1278;62273;-74
2022/09/21 02:36:34;;;;;;;;;;;;;;;8.52;100.00;99350.70;104652;1277;61959;-74
2022/09/21 02:39:04;;;;;;;;;;;;;;;8.52;100.00;99350.17;104662;1277;77588;-74
2022/09/21 02:41:37;;;;;;;;;;;;;;;8.52;100.00;99351.02;104525;1278;70177;-75
2022/09/21 02:44:05;;;;;;;;;;;;;;;8.52;100.00;99356.52;104687;1277;73484;-75
2022/09/21 02:46:31;;;;;;;;;;;;;;;8.52;100.00;99361.11;104643;1277;62084;-74
2022/09/21 02:49:01;;;;;;;;;;;;;;;8.52;100.00;99358.08;104635;1278;62201;-74
2022/09/21 02:51:29;;;;;;;;;;;;;;;8.53;100.00;99361.40;104646;1277;77705;-73
2022/09/21 02:53:57;;;;;;;;;;;;;;;8.55;100.00;99354.45;104635;1277;70197;-73
2022/09/21 02:56:25;;;;;;;;;;;;;;;8.54;100.00;99357.33;104627;1277;73341;-74
2022/09/21 02:58:53;;;;;;;;;;;;;;;8.54;100.00;99359.10;104591;1277;62185;-74
2022/09/21 03:01:19;;;;;;;;;;;;;;;8.54;100.00;99358.56;104672;1277;62401;-74
2022/09/21 03:03:46;;;;;;;;;;;;;;;8.54;100.00;99362.95;104902;1271;76216;-74
2022/09/21 03:06:11;;;;;;;;;;;;;;;8.54;100.00;99363.48;104958;1270;62200;-74
2022/09/21 03:08:37;;;;;;;;;;;;;;;8.54;100.00;99366.83;105175;1270;62111;-75
2022/09/21 03:11:03;;;;;;;;;;;;;;;8.55;100.00;99366.64;105169;1270;62200;-76
2022/09/21 03:13:29;;;;;;;;;;;;;;;8.55;100.00;99368.74;105174;1270;62076;-74
2022/09/21 03:16:13;;;;;;;;;;;;;;;8.55;100.00;99378.83;105105;1270;62162;-75
2022/09/21 03:18:42;;;;;;;;;;;;;;;8.55;100.00;99377.41;105181;1270;68435;-74
2022/09/21 03:21:12;;;;;;;;;;;;;;;8.56;100.00;99383.06;105125;1270;74169;-74
2022/09/21 03:23:38;;;;;;;;;;;;;;;8.56;100.00;99383.77;105158;1270;62554;-74
2022/09/21 03:26:05;;;;;;;;;;;;;;;8.57;100.00;99388.11;105234;1270;62007;-76
2022/09/21 03:28:30;;;;;;;;;;;;;;;8.59;100.00;99388.77;105150;1270;62085;-74
2022/09/21 03:30:56;;;;;;;;;;;;;;;8.58;100.00;99385.25;105168;1270;62242;-74
2022/09/21 03:33:24;;;;;;;;;;;;;;;8.58;100.00;99392.16;105154;1270;62113;-75
2022/09/21 03:35:50;;;;;;;;;;;;;;;8.59;100.00;99391.58;105147;1270;62112;-74
2022/09/21 03:38:16;;;;;;;;;;;;;;;8.59;100.00;99390.89;105188;1270;62065;-75
2022/09/21 03:40:45;;;;;;;;;;;;;;;8.60;100.00;99392.79;105153;1270;62290;-74
2022/09/21 03:43:11;;;;;;;;;;;;;;;8.60;100.00;99393.14;105153;1270;70284;-74
2022/09/21 03:45:39;;;;;;;;;;;;;;;8.60;100.00;99391.36;105169;1270;62196;-74
2022/09/21 03:48:06;;;;;;;;;;;;;;;8.61;100.00;99395.89;105160;1270;62062;-74
2022/09/21 03:50:32;;;;;;;;;;;;;;;8.61;100.00;99394.48;105076;1270;62082;-74
2022/09/21 03:52:58;;;;;;;;;;;;;;;8.62;100.00;99395.50;105127;1270;62073;-74
2022/09/21 03:55:25;;;;;;;;;;;;;;;8.63;100.00;99399.02;105038;1271;62196;-73
2022/09/21 03:57:51;;;;;;;;;;;;;;;8.62;100.00;99399.41;105064;1271;62252;-74
2022/09/21 04:00:17;;;;;;;;;;;;;;;8.62;100.00;99401.03;105151;1270;62114;-74
2022/09/21 04:02:43;;;;;;;;;;;;;;;8.61;100.00;99403.34;105178;1271;62139;-73
2022/09/21 04:05:10;;;;;;;;;;;;;;;8.62;100.00;99403.48;105202;1270;62181;-74
2022/09/21 04:07:36;;;;;;;;;;;;;;;8.61;100.00;99406.19;104964;1271;62156;-74
2022/09/21 04:10:06;;;;;;;;;;;;;;;8.61;100.00;99406.73;105130;1270;62158;-74
2022/09/21 04:12:33;;;;;;;;;;;;;;;8.61;100.00;99410.81;105147;1270;62175;-74
2022/09/21 04:15:00;;;;;;;;;;;;;;;8.60;100.00;99412.61;105160;1270;62041;-76
2022/09/21 04:17:27;;;;;;;;;;;;;;;8.59;100.00;99412.13;105123;1270;62092;-72
2022/09/21 04:19:56;;;;;;;;;;;;;;;8.60;100.00;99411.05;105182;1270;62078;-74
2022/09/21 04:22:23;;;;;;;;;;;;;;;8.57;100.00;99412.00;104935;1271;73490;-74
2022/09/21 04:24:50;;;;;;;;;;;;;;;8.57;100.00;99417.91;105178;1270;62018;-74
2022/09/21 04:27:17;;;;;;;;;;;;;;;8.57;100.00;99417.56;105217;1270;62377;-74
2022/09/21 04:29:43;;;;;;;;;;;;;;;8.56;100.00;99420.62;105165;1270;77236;-74
2022/09/21 04:32:10;;;;;;;;;;;;;;;8.55;100.00;99417.29;105173;1270;62174;-74
2022/09/21 04:34:38;;;;;;;;;;;;;;;8.55;100.00;99418.53;105195;1270;62021;-74
2022/09/21 04:37:09;;;;;;;;;;;;;;;8.55;100.00;99424.35;104902;1274;62091;-74
2022/09/21 04:39:35;;;;;;;;;;;;;;;8.55;100.00;99420.29;105073;1270;62148;-74
2022/09/21 04:42:01;;;;;;;;;;;;;;;8.54;100.00;99425.48;105191;1270;62165;-74
2022/09/21 04:44:28;;;;;;;;;;;;;;;8.53;100.00;99429.24;105182;1270;62131;-74
2022/09/21 04:46:53;;;;;;;;;;;;;;;8.53;100.00;99429.77;105215;1270;62534;-73
2022/09/21 04:49:19;;;;;;;;;;;;;;;8.54;100.00;99435.60;105199;1270;62188;-74
2022/09/21 04:51:45;;;;;;;;;;;;;;;8.54;100.00;99439.84;105167;1270;62073;-73
2022/09/21 04:54:11;;;;;;;;;;;;;;;8.53;100.00;99439.52;105167;1270;62057;-74
2022/09/21 04:56:37;;;;;;;;;;;;;;;8.55;100.00;99435.70;105213;1270;62152;-74
2022/09/21 04:59:03;;;;;;;;;;;;;;;8.55;100.00;99437.12;105199;1270;62067;-75
2022/09/21 05:01:29;;;;;;;;;;;;;;;8.58;100.00;99430.61;105172;1270;62079;-74
2022/09/21 05:04:00;;;;;;;;;;;;;;;8.63;100.00;99428.42;105181;1270;62234;-74
2022/09/21 05:06:30;;;;;;;;;;;;;;;8.65;100.00;99424.56;105170;1269;70446;-74
2022/09/21 05:11:41;;;;;;;;;;;;;;;8.69;100.00;99429.10;105187;1270;62089;-74
2022/09/21 05:14:08;;;;;;;;;;;;;;;8.70;100.00;99437.02;105182;1270;62168;-74
2022/09/21 05:16:34;;;;;;;;;;;;;;;8.70;100.00;99435.98;105161;1270;62065;-74
2022/09/21 05:19:00;;;;;;;;;;;;;;;8.70;100.00;99440.21;105280;1270;62153;-74
2022/09/21 05:21:26;;;;;;;;;;;;;;;8.70;100.00;99441.13;105210;1270;62209;-73
2022/09/21 05:23:53;;;;;;;;;;;;;;;8.70;100.00;99442.02;105162;1270;62154;-75
2022/09/21 05:26:19;;;;;;;;;;;;;;;8.71;100.00;99448.17;105189;1270;62156;-75
2022/09/21 05:28:45;;;;;;;;;;;;;;;8.74;100.00;99449.78;105148;1270;62870;-76
2022/09/21 05:31:19;;;;;;;;;;;;;;;8.77;100.00;99444.65;105191;1270;62215;-74
2022/09/21 05:33:51;;;;;;;;;;;;;;;8.81;100.00;99450.30;105175;1270;73875;-74
2022/09/21 05:36:26;;;;;;;;;;;;;;;8.84;100.00;99452.66;105184;1270;62184;-74
2022/09/21 05:38:52;;;;;;;;;;;;;;;8.85;100.00;99453.12;105198;1269;62093;-74
2022/09/21 05:41:18;;;;;;;;;;;;;;;8.86;100.00;99455.19;105244;1270;62618;-73
2022/09/21 05:43:44;;;;;;;;;;;;;;;8.88;100.00;99453.30;105170;1270;62082;-74
2022/09/21 05:46:16;;;;;;;;;;;;;;;8.91;100.00;99456.16;105163;1270;62082;-74
2022/09/21 05:48:47;;;;;;;;;;;;;;;8.93;100.00;99459.25;105162;1270;62089;-74
2022/09/21 05:51:13;;;;;;;;;;;;;;;8.94;100.00;99461.47;105202;1270;62255;-74
2022/09/21 05:53:38;;;;;;;;;;;;;;;8.97;100.00;99460.83;104933;1271;62483;-74
2022/09/21 05:56:20;;;;;;;;;;;;;;;8.98;100.00;99460.74;105186;1270;61989;-74
2022/09/21 05:58:53;;;;;;;;;;;;;;;8.98;100.00;99464.45;105237;1270;73830;-74
2022/09/21 06:01:27;;;;;;;;;;;;;;;8.98;100.00;99465.67;105195;1270;62084;-74
2022/09/21 06:03:54;;;;;;;;;;;;;;;8.97;100.00;99471.77;104928;1270;61964;-74
2022/09/21 06:06:20;;;;;;;;;;;;;;;8.99;100.00;99473.64;105190;1270;76908;-73
2022/09/21 06:08:46;;;;;;;;;;;;;;;9.01;100.00;99472.13;105214;1270;62059;-73
2022/09/21 06:11:13;;;;;;;;;;;;;;;9.02;100.00;99476.11;105181;1270;62128;-72
2022/09/21 06:13:40;;;;;;;;;;;;;;;9.02;100.00;99472.58;105190;1270;62192;-75
2022/09/21 06:16:06;;;;;;;;;;;;;;;9.06;100.00;99478.06;105176;1270;62289;-75
2022/09/21 06:18:36;;;;;;;;;;;;;;;9.02;100.00;99473.10;105170;1270;62092;-75
2022/09/21 06:21:01;;;;;;;;;;;;;;;9.02;100.00;99478.09;105202;1270;70434;-74
2022/09/21 06:23:27;;;;;;;;;;;;;;;9.02;100.00;99478.77;105073;1270;155421;-73
2022/09/21 06:25:53;;;;;;;;;;;;;;;9.08;100.00;99477.41;105191;1270;62378;-74
2022/09/21 06:28:19;;;;;;;;;;;;;;;9.16;100.00;99472.37;105173;1270;62257;-75
2022/09/21 06:30:52;;;;;;;;;;;;;;;9.20;100.00;99475.33;105223;1270;62178;-75
2022/09/21 06:33:20;;;;;;;;;;;;;;;9.24;100.00;99475.67;105306;1270;69023;-75
2022/09/21 06:35:52;;;;;;;;;;;;;;;9.24;100.00;99477.46;105292;1270;74730;-75
2022/09/21 06:38:18;;;;;;;;;;;;;;;9.23;100.00;99478.17;105250;1270;62175;-74
2022/09/21 06:40:44;;;;;;;;;;;;;;;9.27;100.00;99477.29;105175;1270;62101;-74
2022/09/21 06:43:10;;;;;;;;;;;;;;;9.38;100.00;99480.77;104984;1270;62089;-74
2022/09/21 06:45:36;;;;;;;;;;;;;;;9.53;100.00;99480.85;105201;1270;62171;-74
2022/09/21 06:48:01;;;;;;;;;;;;;;;9.60;100.00;99478.67;105214;1270;62181;-73
2022/09/21 06:50:29;;;;;;;;;;;;;;;9.71;100.00;99480.02;105204;1270;62200;-73
2022/09/21 06:52:58;;;;;;;;;;;;;;;9.78;100.00;99479.09;105208;1270;62191;-75
2022/09/21 06:55:24;;;;;;;;;;;;;;;9.75;100.00;99485.83;104910;1270;74658;-75
2022/09/21 06:57:50;;;;;;;;;;;;;;;9.80;100.00;99488.38;105233;1270;70495;-73
2022/09/21 07:00:17;;;;;;;;;;;;;;;9.92;100.00;99491.62;105187;1270;62067;-73
2022/09/21 07:02:44;;;;;;;;;;;;;;;10.03;100.00;99496.64;105226;1269;62310;-75
2022/09/21 07:05:11;;;;;;;;;;;;;;;10.08;100.00;99498.20;105214;1270;62175;-75
2022/09/21 07:07:39;;;;;;;;;;;;;;;10.12;100.00;99493.13;105228;1270;77068;-73
2022/09/21 07:10:06;;;;;;;;;;;;;;;10.08;100.00;99494.77;105221;1270;69507;-73
2022/09/21 07:12:37;;;;;;;;;;;;;;;10.04;100.00;99498.60;105223;1270;74006;-73
2022/09/21 07:15:04;;;;;;;;;;;;;;;10.07;100.00;99497.19;105227;1270;62512;-74
2022/09/21 07:17:34;;;;;;;;;;;;;;;10.04;100.00;99504.27;105318;1270;62000;-74
2022/09/21 07:20:26;;;;;;;;;;;;;;;10.02;100.00;99508.83;105296;1270;75361;-72
2022/09/21 07:22:52;;;;;;;;;;;;;;;10.05;100.00;99508.65;105214;1270;69353;-75
2022/09/21 07:25:18;;;;;;;;;;;;;;;10.14;100.00;99510.99;105223;1270;62198;-74
2022/09/21 07:27:44;;;;;;;;;;;;;;;10.24;100.00;99510.06;105153;1270;62127;-74
2022/09/21 07:30:11;;;;;;;;;;;;;;;10.30;100.00;99515.96;105211;1270;62092;-74
2022/09/21 07:32:37;;;;;;;;;;;;;;;10.27;100.00;99514.87;105231;1270;62607;-74
2022/09/21 07:35:03;;;;;;;;;;;;;;;10.26;100.00;99520.77;105180;1270;62100;-74
2022/09/21 07:37:30;;;;;;;;;;;;;;;10.28;100.00;99519.95;105218;1270;62176;-73
2022/09/21 07:39:56;;;;;;;;;;;;;;;10.31;100.00;99518.17;105206;1270;62171;-74
2022/09/21 07:42:23;;;;;;;;;;;;;;;10.31;100.00;99520.70;105212;1270;62201;-75
2022/09/21 07:44:49;;;;;;;;;;;;;;;10.29;100.00;99519.21;105170;1270;62101;-74
2022/09/21 07:47:15;;;;;;;;;;;;;;;10.32;100.00;99521.35;104962;1270;62331;-75
2022/09/21 07:49:41;;;;;;;;;;;;;;;10.29;100.00;99522.91;105195;1270;62334;-75
2022/09/21 07:52:08;;;;;;;;;;;;;;;10.29;100.00;99524.36;105180;1270;62193;-75
2022/09/21 07:54:34;;;;;;;;;;;;;;;10.32;100.00;99519.55;105406;1270;61998;-75
2022/09/21 07:59:45;;;;;;;;;;;;;;;10.45;100.00;99522.04;105228;1270;69493;-74
2022/09/21 08:02:11;;;;;;;;;;;;;;;10.48;100.00;99526.67;105186;1270;62117;-75
2022/09/21 08:04:37;;;;;;;;;;;;;;;10.45;100.00;99531.59;105209;1270;62243;-74
2022/09/21 08:07:03;;;;;;;;;;;;;;;10.45;100.00;99530.04;105233;1270;62196;-74
2022/09/21 08:09:29;;;;;;;;;;;;;;;10.48;100.00;99529.66;105204;1270;62040;-74
2022/09/21 08:11:57;;;;;;;;;;;;;;;10.54;100.00;99531.81;105204;1270;62158;-73
2022/09/21 08:14:23;;;;;;;;;;;;;;;10.70;100.00;99527.69;105249;1270;62158;-74
2022/09/21 08:16:49;;;;;;;;;;;;;;;10.85;100.00;99525.55;105211;1270;62172;-75
2022/09/21 08:19:16;;;;;;;;;;;;;;;10.87;100.00;99527.88;105205;1270;62158;-75
2022/09/21 08:21:42;;;;;;;;;;;;;;;10.92;100.00;99529.39;105232;1270;62185;-75
2022/09/21 08:24:09;;;;;;;;;;;;;;;11.07;100.00;99530.59;105221;1270;62179;-74
2022/09/21 08:26:34;;;;;;;;;;;;;;;11.17;100.00;99533.05;105225;1270;62244;-74
2022/09/21 08:29:00;;;;;;;;;;;;;;;11.25;100.00;99533.66;105240;1270;62069;-75
2022/09/21 08:31:26;;;;;;;;;;;;;;;11.21;100.00;99537.93;105251;1270;62177;-75
2022/09/21 08:33:53;;;;;;;;;;;;;;;11.07;100.00;99540.94;105228;1270;70453;-77
2022/09/21 08:36:19;;;;;;;;;;;;;;;10.98;100.00;99546.81;105220;1270;74781;-76
2022/09/21 08:38:46;;;;;;;;;;;;;;;10.95;100.00;99550.55;105200;1270;62108;-74
2022/09/21 08:41:15;;;;;;;;;;;;;;;10.91;100.00;99553.98;105238;1270;62150;-76
2022/09/21 08:43:49;;;;;;;;;;;;;;;10.87;100.00;99555.79;105064;1271;76468;-73
2022/09/21 08:46:18;;;;;;;;;;;;;;;10.83;100.00;99549.64;105239;1270;69496;-74
2022/09/21 08:48:50;;;;;;;;;;;;;;;10.82;100.00;99552.71;105207;1270;74278;-76
2022/09/21 08:51:21;;;;;;;;;;;;;;;10.80;100.00;99552.34;105276;1270;62168;-76
2022/09/21 08:53:50;;;;;;;;;;;;;;;10.79;100.00;99548.34;105247;1270;62204;-75
2022/09/21 08:56:16;;;;;;;;;;;;;;;10.82;100.00;99546.14;105249;1270;76079;-75
2022/09/21 08:58:42;;;;;;;;;;;;;;;10.86;100.00;99549.98;105184;1270;61925;-75
2022/09/21 09:01:20;;;;;;;;;;;;;;;10.89;100.00;99550.73;105198;1270;62181;-74
2022/09/21 09:03:58;;;;;;;;;;;;;;;10.91;100.00;99550.08;105193;1270;62245;-74
2022/09/21 09:06:27;;;;;;;;;;;;;;;10.96;100.00;99545.11;105210;1270;62067;-74
2022/09/21 09:09:12;;;;;;;;;;;;;;;11.02;100.00;99550.48;105194;1270;76217;-76
2022/09/21 09:11:56;;;;;;;;;;;;;;;11.06;100.00;99545.81;105230;1270;69299;-74
2022/09/21 09:14:26;;;;;;;;;;;;;;;11.04;100.00;99544.88;105167;1270;73433;-74
2022/09/21 09:17:08;;;;;;;;;;;;;;;11.07;100.00;99546.12;105211;1270;62146;-74
2022/09/21 09:19:33;;;;;;;;;;;;;;;11.19;100.00;99543.95;105191;1270;62061;-75
2022/09/21 09:22:03;;;;;;;;;;;;;;;11.27;100.00;99542.39;105210;1270;62290;-76
2022/09/21 09:24:45;;;;;;;;;;;;;;;11.27;100.00;99544.71;105216;1270;69158;-76
2022/09/21 09:27:16;;;;;;;;;;;;;;;11.20;100.00;99545.63;105203;1270;73271;-75
2022/09/21 09:29:47;;;;;;;;;;;;;;;11.15;100.00;99546.13;105273;1270;62095;-74
2022/09/21 09:32:14;;;;;;;;;;;;;;;11.21;100.00;99544.14;104989;1270;62147;-75
2022/09/21 09:34:44;;;;;;;;;;;;;;;11.32;100.00;99546.50;105236;1270;75718;-74
2022/09/21 09:37:14;;;;;;;;;;;;;;;11.44;100.00;99541.71;105239;1270;70346;-76
2022/09/21 09:39:42;;;;;;;;;;;;;;;11.44;100.00;99542.93;105200;1270;74242;-73
2022/09/21 09:42:31;;;;;;;;;;;;;;;11.47;100.00;99542.23;105183;1270;62043;-74
2022/09/21 09:44:57;;;;;;;;;;;;;;;11.68;100.00;99541.45;105369;1270;62169;-74
2022/09/21 09:47:31;;;;;;;;;;;;;;;11.78;100.00;99546.55;105231;1270;62171;-75
2022/09/21 09:49:59;;;;;;;;;;;;;;;11.91;100.00;99544.30;105233;1270;70990;-75
2022/09/21 09:52:26;;;;;;;;;;;;;;;12.03;100.00;99542.09;105231;1270;74408;-74
2022/09/21 09:54:53;;;;;;;;;;;;;;;12.13;100.00;99547.00;105288;1270;62091;-75
2022/09/21 09:57:23;;;;;;;;;;;;;;;12.18;100.00;99546.85;105219;1270;62114;-74
2022/09/21 09:59:53;;;;;;;;;;;;;;;12.00;100.00;99546.56;105234;1270;77235;-74
2022/09/21 10:02:26;;;;;;;;;;;;;;;11.86;100.00;99547.09;105248;1270;69390;-75
2022/09/21 10:05:05;;;;;;;;;;;;;;;11.74;100.00;99547.86;104963;1270;73525;-73
2022/09/21 10:07:37;;;;;;;;;;;;;;;11.65;100.00;99550.33;105242;1270;62095;-75
2022/09/21 10:10:21;;;;;;;;;;;;;;;11.61;100.00;99550.23;105254;1270;62676;-76
2022/09/21 10:12:48;;;;;;;;;;;;;;;11.58;100.00;99546.67;105286;1270;76388;-73
2022/09/21 10:15:17;;;;;;;;;;;;;;;11.64;100.00;99543.34;105211;1270;70230;-76
2022/09/21 10:17:46;;;;;;;;;;;;;;;11.80;100.00;99541.25;105282;1270;74746;-73
2022/09/21 10:20:15;;;;;;;;;;;;;;;11.96;100.00;99539.18;105232;1270;62207;-73
2022/09/21 10:22:45;;;;;;;;;;;;;;;12.02;100.00;99536.15;105309;1270;62003;-74
2022/09/21 10:25:15;;;;;;;;;;;;;;;12.07;100.00;99535.46;105227;1270;76255;-75
2022/09/21 10:27:43;;;;;;;;;;;;;;;12.23;100.00;99537.59;105261;1270;70651;-74
2022/09/21 10:30:30;;;;;;;;;;;;;;;12.41;100.00;99535.00;105207;1270;74547;-74
2022/09/21 10:32:58;;;;;;;;;;;;;;;12.55;100.00;99538.58;105231;1270;62238;-73
2022/09/21 10:35:24;;;;;;;;;;;;;;;12.59;100.00;99537.25;104977;1270;62085;-74
2022/09/21 10:38:21;;;;;;;;;;;;;;;12.84;100.00;99537.84;105222;1270;76113;-75
2022/09/21 10:40:47;;;;;;;;;;;;;;;13.21;100.00;99531.93;104587;1278;69331;-74
2022/09/21 10:43:27;;;;;;;;;;;;;;;13.52;100.00;99526.61;104531;1278;62185;-74
2022/09/21 10:45:55;;;;;;;;;;;;;;;13.70;100.00;99520.33;104546;1278;62156;-75
2022/09/21 10:48:23;;;;;;;;;;;;;;;13.91;100.00;99521.85;104570;1277;62271;-73
2022/09/21 10:50:49;;;;;;;;;;;;;;;14.24;100.00;99518.34;104605;1278;76515;-74
2022/09/21 10:53:23;;;;;;;;;;;;;;;14.56;100.00;99512.48;104673;1278;70305;-74
2022/09/21 10:55:52;;;;;;;;;;;;;;;14.83;100.00;99514.02;104574;1278;73532;-73
2022/09/21 10:58:18;;;;;;;;;;;;;;;14.79;100.00;99511.96;104557;1277;62189;-74
2022/09/21 11:00:50;;;;;;;;;;;;;;;14.67;100.00;99516.07;104562;1278;62185;-72
2022/09/21 11:03:27;;;;;;;;;;;;;;;14.64;100.00;99518.27;104568;1277;75661;-75
2022/09/21 11:05:54;;;;;;;;;;;;;;;14.63;100.00;99518.88;104581;1278;70250;-74
2022/09/21 11:08:31;;;;;;;;;;;;;;;14.39;100.00;99522.05;105226;1277;73664;-74
2022/09/21 11:11:23;;;;;;;;;;;;;;;14.13;100.00;99524.71;104529;1278;62322;-74
2022/09/21 11:13:53;;;;;;;;;;;;;;;14.11;100.00;99522.55;104024;1284;62113;-80
2022/09/21 11:16:27;;;;;;;;;;;;;;;14.08;100.00;99522.75;104442;1283;77356;-82
2022/09/21 11:18:53;;;;;;;;;;;;;;;14.04;100.00;99521.99;104957;1276;69613;-84
2022/09/21 11:21:21;;;;;;;;;;;;;;;13.97;100.00;99519.61;105031;1276;62095;-81
2022/09/21 11:23:48;;;;;;;;;;;;;;;13.94;100.00;99512.52;105113;1276;62238;-84
2022/09/21 11:26:20;;;;;;;;;;;;;;;13.90;100.00;99517.12;105143;1276;62087;-83
2022/09/21 11:28:58;;;;;;;;;;;;;;;13.74;100.00;99515.23;105608;1275;75942;-82
2022/09/21 11:31:27;;;;;;;;;;;;;;;13.60;100.00;99510.51;105294;1276;69919;-81
2022/09/21 11:34:10;;;;;;;;;;;;;;;13.47;100.00;99512.30;105148;1276;73685;-85
2022/09/21 11:36:37;;;;;;;;;;;;;;;13.37;100.00;99509.63;105226;1276;62000;-79
2022/09/21 11:39:23;;;;;;;;;;;;;;;13.29;100.00;99508.38;104881;1276;62088;-81
2022/09/21 11:41:55;;;;;;;;;;;;;;;13.23;100.00;99514.37;105220;1276;76281;-80
2022/09/21 11:44:21;;;;;;;;;;;;;;;13.29;100.00;99509.62;105209;1276;67706;-80
2022/09/21 11:46:56;;;;;;;;;;;;;;;13.46;100.00;99508.42;105374;1276;62154;-79
2022/09/21 11:49:26;;;;;;;;;;;;;;;13.69;100.00;99506.27;104858;1276;62232;-78
2022/09/21 11:51:53;;;;;;;;;;;;;;;13.70;100.00;99504.63;105490;1271;62262;-79
2022/09/21 11:54:19;;;;;;;;;;;;;;;13.69;100.00;99503.27;105699;1271;78004;-82
2022/09/21 11:56:45;;;;;;;;;;;;;;;13.77;100.00;99505.71;105681;1270;62087;-86
2022/09/21 11:59:21;;;;;;;;;;;;;;;13.89;100.00;99503.77;105550;1271;62124;-82
2022/09/21 12:02:05;;;;;;;;;;;;;;;13.93;100.00;99502.95;105673;1271;62113;-86
2022/09/21 12:04:50;;;;;;;;;;;;;;;14.00;100.00;99499.21;105481;1271;62165;-79
2022/09/21 12:07:26;;;;;;;;;;;;;;;14.12;100.00;99500.50;105380;1270;75821;-70
2022/09/21 12:09:54;;;;;;;;;;;;;;;14.12;100.00;99499.08;105222;1270;69363;-70
2022/09/21 12:12:39;;;;;;;;;;;;;;;14.15;100.00;99494.58;105205;1270;73473;-70
2022/09/21 12:15:12;;;;;;;;;;;;;;;14.16;100.00;99496.45;105203;1270;62083;-71
2022/09/21 12:17:43;;;;;;;;;;;;;;;14.23;100.00;99499.16;105248;1270;62042;-71
2022/09/21 12:20:19;;;;;;;;;;;;;;;14.41;100.00;99495.30;105222;1270;77357;-69
2022/09/21 12:22:48;;;;;;;;;;;;;;;14.60;100.00;99489.79;104888;1270;70332;-71
2022/09/21 12:25:24;;;;;;;;;;;;;;;14.71;100.00;99488.82;104935;1270;73415;-71
2022/09/21 12:27:53;;;;;;;;;;;;;;;14.69;100.00;99487.71;104866;1271;62441;-70
2022/09/21 12:30:21;;;;;;;;;;;;;;;14.69;100.00;99487.54;104865;1270;61970;-69
2022/09/21 12:32:52;;;;;;;;;;;;;;;14.82;100.00;99482.95;105473;1270;76114;-69
2022/09/21 12:35:24;;;;;;;;;;;;;;;14.93;100.00;99484.27;104894;1270;69290;-70
2022/09/21 12:38:00;;;;;;;;;;;;;;;15.07;100.00;99487.66;104962;1270;72595;-70
2022/09/21 12:40:51;;;;;;;;;;;;;;;15.19;100.00;99480.23;104862;1270;62274;-70
2022/09/21 12:43:27;;;;;;;;;;;;;;;15.12;100.00;99477.39;104153;1277;62185;-70
2022/09/21 12:45:56;;;;;;;;;;;;;;;14.97;100.00;99481.25;104517;1277;76725;-70
2022/09/21 12:48:29;;;;;;;;;;;;;;;14.79;100.00;99482.08;104489;1277;70591;-70
2022/09/21 12:51:02;;;;;;;;;;;;;;;14.62;100.00;99484.45;104592;1277;73622;-69